Time;durP1;ratioP1;P1;durP2;ratioP2;P2;SDS_P1;SDS_P2;PMS_P1;PMS_P2;Temp;Humidity;BMP_temperature;BMP_pressure;BME280_temperature;BME280_humidity;BME280_pressure;Samples;Min_cycle;Max_cycle;Signal;HPM_P1;HPM_P2
2023/12/29 00:01:45;;;;;;;1999.90;999.90;;;11.20;76.20;;;;;;5032906;28;20542;-75
2023/12/29 00:04:10;;;;;;;1999.90;999.90;;;11.20;75.80;;;;;;5033086;28;20519;-74
2023/12/29 00:06:40;;;;;;;1999.90;999.90;;;11.20;74.10;;;;;;5032998;28;20197;-72
2023/12/29 00:09:05;;;;;;;1999.90;999.90;;;11.30;74.80;;;;;;5033065;28;20549;-75
2023/12/29 00:11:31;;;;;;;1999.90;999.90;;;11.20;76.40;;;;;;5032692;28;20498;-75
2023/12/29 00:13:57;;;;;;;1999.90;999.90;;;11.20;75.00;;;;;;5032930;28;20250;-75
2023/12/29 00:16:22;;;;;;;1999.90;999.90;;;11.20;76.70;;;;;;5032645;28;20167;-73
2023/12/29 00:18:48;;;;;;;1999.90;999.90;;;11.20;78.60;;;;;;5032844;28;20190;-75
2023/12/29 00:21:13;;;;;;;1999.90;999.90;;;11.20;76.70;;;;;;5032575;28;20543;-75
2023/12/29 00:23:39;;;;;;;1999.90;999.90;;;11.20;77.20;;;;;;5032648;28;20168;-75
2023/12/29 00:26:05;;;;;;;1999.90;999.90;;;11.20;78.60;;;;;;5032634;28;20199;-75
2023/12/29 00:28:31;;;;;;;1999.90;999.90;;;11.20;80.60;;;;;;5032235;28;20998;-73
2023/12/29 00:30:56;;;;;;;1999.90;999.90;;;11.20;80.00;;;;;;5032392;28;20176;-75
2023/12/29 00:33:22;;;;;;;1999.90;999.90;;;11.10;80.30;;;;;;5032569;28;20177;-75
2023/12/29 00:35:48;;;;;;;1999.90;999.90;;;11.10;79.90;;;;;;5032540;28;20177;-74
2023/12/29 00:38:13;;;;;;;1999.90;999.90;;;11.10;79.80;;;;;;5032325;28;20199;-74
2023/12/29 00:40:39;;;;;;;1999.90;999.90;;;11.10;80.40;;;;;;5032355;28;20636;-74
2023/12/29 00:43:05;;;;;;;1999.90;999.90;;;11.20;79.50;;;;;;5032405;28;20186;-72
2023/12/29 00:45:32;;;;;;;1999.90;999.90;;;11.10;82.80;;;;;;5031596;28;21003;-75
2023/12/29 00:47:59;;;;;;;1999.90;999.90;;;11.10;82.00;;;;;;5032371;28;20203;-75
2023/12/29 00:50:26;;;;;;;1999.90;999.90;;;11.20;82.70;;;;;;5032147;28;20524;-74
2023/12/29 00:52:51;;;;;;;1999.90;999.90;;;11.10;81.30;;;;;;5032037;28;20917;-74
2023/12/29 00:55:17;;;;;;;1999.90;999.90;;;11.10;81.90;;;;;;5032155;28;20413;-73
2023/12/29 00:57:43;;;;;;;1999.90;999.90;;;11.10;81.30;;;;;;5032237;28;20215;-73
2023/12/29 01:00:11;;;;;;;1999.90;999.90;;;11.10;82.40;;;;;;5032174;28;20250;-73
2023/12/29 01:02:37;;;;;;;1999.90;999.90;;;11.10;83.90;;;;;;5031845;28;20164;-74
2023/12/29 01:05:03;;;;;;;1999.90;999.90;;;11.10;84.40;;;;;;5031943;28;20449;-73
2023/12/29 01:07:28;;;;;;;1999.90;999.90;;;11.00;87.10;;;;;;5031903;28;20202;-74
2023/12/29 01:09:54;;;;;;;1999.90;999.90;;;11.00;89.50;;;;;;5031986;28;20414;-74
2023/12/29 01:12:19;;;;;;;1999.90;999.90;;;10.90;91.00;;;;;;5031722;28;20658;-73
2023/12/29 01:14:45;;;;;;;1999.90;999.90;;;10.90;91.90;;;;;;5031912;28;20183;-73
2023/12/29 01:17:10;;;;;;;1999.90;999.90;;;11.00;92.50;;;;;;5031551;28;20223;-73
2023/12/29 01:19:36;;;;;;;1999.90;999.90;;;10.90;92.50;;;;;;5031692;28;20250;-73
2023/12/29 01:22:02;;;;;;;1999.90;999.90;;;10.90;92.60;;;;;;5031658;28;20694;-72
2023/12/29 01:24:27;;;;;;;1999.90;999.90;;;10.90;92.80;;;;;;5031744;28;20171;-73
2023/12/29 01:26:53;;;;;;;1999.90;999.90;;;11.00;93.00;;;;;;5031943;28;20199;-73
2023/12/29 01:29:18;;;;;;;1999.90;999.90;;;11.00;92.70;;;;;;5031740;28;20179;-73
2023/12/29 01:31:44;;;;;;;1999.90;999.90;;;11.00;92.80;;;;;;5031507;28;20168;-73
2023/12/29 01:34:09;;;;;;;1999.90;999.90;;;11.00;93.00;;;;;;5031586;28;20176;-72
2023/12/29 01:36:35;;;;;;;1999.90;999.90;;;11.00;93.50;;;;;;5031526;28;20584;-73
2023/12/29 01:39:02;;;;;;;1999.90;999.90;;;11.00;92.60;;;;;;5031704;28;20199;-74
2023/12/29 01:41:29;;;;;;;1999.90;999.90;;;11.00;93.50;;;;;;5031435;28;20254;-73
2023/12/29 01:44:00;;;;;;;1999.90;999.90;;;11.00;93.60;;;;;;5031579;28;20642;-73
2023/12/29 01:46:28;;;;;;;1999.90;999.90;;;11.00;99.90;;;;;;5031539;28;20820;-72
2023/12/29 01:48:54;;;;;;;1999.90;999.90;;;11.00;94.20;;;;;;5031553;28;20863;-72
2023/12/29 01:51:23;;;;;;;1999.90;999.90;;;11.00;94.10;;;;;;5031355;28;20417;-72
2023/12/29 01:53:49;;;;;;;1999.90;999.90;;;11.00;94.90;;;;;;5031443;28;20449;-73
2023/12/29 01:56:15;;;;;;;1999.90;999.90;;;11.00;94.80;;;;;;5032586;28;20410;-73
2023/12/29 01:58:41;;;;;;;1999.90;999.90;;;11.00;94.30;;;;;;5035329;28;20454;-73
2023/12/29 02:01:07;;;;;;;1999.90;999.90;;;11.00;95.10;;;;;;5035372;28;20178;-73
2023/12/29 02:03:34;;;;;;;1999.90;999.90;;;11.00;94.40;;;;;;5035293;28;20783;-73
2023/12/29 02:05:59;;;;;;;1999.90;999.90;;;10.90;94.70;;;;;;5035270;28;20401;-73
2023/12/29 02:08:25;;;;;;;1999.90;999.90;;;10.90;95.50;;;;;;5035170;28;20516;-73
2023/12/29 02:10:51;;;;;;;1999.90;999.90;;;11.00;95.70;;;;;;5035014;28;20179;-73
2023/12/29 02:13:17;;;;;;;1999.90;999.90;;;10.90;95.70;;;;;;5035126;28;20178;-73
2023/12/29 02:15:43;;;;;;;1999.90;999.90;;;10.90;96.00;;;;;;5035143;28;20419;-72
2023/12/29 02:18:16;;;;;;;1999.90;999.90;;;10.90;96.40;;;;;;5034889;28;20237;-73
2023/12/29 02:20:42;;;;;;;1999.90;999.90;;;10.90;97.10;;;;;;5035253;28;20878;-73
2023/12/29 02:23:09;;;;;;;1999.90;999.90;;;10.80;97.70;;;;;;5034846;28;20496;-73
2023/12/29 02:25:34;;;;;;;1999.90;999.90;;;10.90;97.80;;;;;;5035034;28;20501;-72
2023/12/29 02:28:30;;;;;;;1999.90;999.90;;;10.90;97.90;;;;;;5034871;28;20907;-73
2023/12/29 02:31:05;;;;;;;1999.90;999.90;;;10.90;97.60;;;;;;5022105;28;20182;-72
2023/12/29 02:33:36;;;;;;;1999.90;999.90;;;10.90;96.80;;;;;;5034784;28;20411;-72
2023/12/29 02:36:03;;;;;;;1999.90;999.90;;;10.90;97.10;;;;;;5034819;28;20399;-72
2023/12/29 02:38:29;;;;;;;1999.90;999.90;;;10.90;97.40;;;;;;5034575;28;20458;-71
2023/12/29 02:40:58;;;;;;;1999.90;999.90;;;10.90;98.40;;;;;;5034422;28;20421;-71
2023/12/29 02:43:24;;;;;;;1999.90;999.90;;;10.90;99.90;;;;;;5034560;28;20410;-75
2023/12/29 02:45:49;;;;;;;1999.90;999.90;;;10.80;99.90;;;;;;5034669;28;20733;-75
2023/12/29 02:48:15;;;;;;;1999.90;999.90;;;10.80;99.90;;;;;;5034475;28;20269;-72
2023/12/29 02:50:40;;;;;;;1999.90;999.90;;;10.70;99.90;;;;;;5034596;28;20179;-75
2023/12/29 02:53:06;;;;;;;1999.90;999.90;;;10.70;99.90;;;;;;5034331;28;20176;-75
2023/12/29 02:55:32;;;;;;;1999.90;999.90;;;10.60;99.90;;;;;;5034409;28;20175;-75
2023/12/29 02:57:58;;;;;;;1999.90;999.90;;;10.60;99.90;;;;;;5034204;28;21005;-75
2023/12/29 03:00:23;;;;;;;1999.90;999.90;;;10.70;99.90;;;;;;5034315;28;20251;-73
2023/12/29 03:02:49;;;;;;;1999.90;999.90;;;10.80;99.90;;;;;;5034060;28;20522;-75
2023/12/29 03:05:15;;;;;;;1999.90;999.90;;;10.80;99.90;;;;;;5034242;28;20168;-75
2023/12/29 03:07:41;;;;;;;1999.90;999.90;;;10.70;99.90;;;;;;5033181;28;20195;-74
2023/12/29 03:10:07;;;;;;;1999.90;999.90;;;10.80;99.90;;;;;;5034173;28;20169;-75
2023/12/29 03:12:32;;;;;;;1999.90;999.90;;;10.80;99.90;;;;;;5033823;28;20500;-75
2023/12/29 03:14:58;;;;;;;1999.90;999.90;;;10.90;99.90;;;;;;5033883;28;20834;-75
2023/12/29 03:17:24;;;;;;;1999.90;999.90;;;10.90;99.90;;;;;;5033806;28;20210;-74
2023/12/29 03:19:49;;;;;;;1999.90;999.90;;;10.90;99.90;;;;;;5034007;28;20647;-75
2023/12/29 03:22:15;;;;;;;1999.90;999.90;;;10.90;99.90;;;;;;5033707;28;20600;-73
2023/12/29 03:24:42;;;;;;;1999.90;999.90;;;10.80;99.90;;;;;;5033726;28;20225;-75
2023/12/29 03:27:08;;;;;;;1999.90;999.90;;;10.80;99.90;;;;;;5033753;28;20203;-75
2023/12/29 03:29:34;;;;;;;1999.90;999.90;;;10.70;99.90;;;;;;5033790;28;20415;-74
2023/12/29 03:31:59;;;;;;;1999.90;999.90;;;10.70;99.90;;;;;;5033508;28;20410;-75
2023/12/29 03:34:25;;;;;;;1999.90;999.90;;;10.80;99.90;;;;;;5033651;28;20198;-75
2023/12/29 03:36:50;;;;;;;1999.90;999.90;;;10.70;99.90;;;;;;5033490;28;20277;-75
2023/12/29 03:39:16;;;;;;;1999.90;999.90;;;10.70;99.90;;;;;;5033665;28;20172;-72
2023/12/29 03:41:42;;;;;;;1999.90;999.90;;;10.70;99.90;;;;;;5033459;28;20582;-75
2023/12/29 03:44:07;;;;;;;1999.90;999.90;;;10.60;99.90;;;;;;5033677;28;20185;-75
2023/12/29 03:46:33;;;;;;;1999.90;999.90;;;10.60;99.90;;;;;;5033378;28;20226;-74
2023/12/29 03:48:59;;;;;;;1999.90;999.90;;;10.60;99.90;;;;;;5033443;28;20278;-74
2023/12/29 03:51:24;;;;;;;1999.90;999.90;;;10.60;99.90;;;;;;5033316;28;20417;-74
2023/12/29 03:53:50;;;;;;;1999.90;999.90;;;10.60;99.90;;;;;;5033333;28;20226;-72
2023/12/29 03:56:17;;;;;;;1999.90;999.90;;;10.40;99.90;;;;;;5033175;28;20240;-74
2023/12/29 03:58:44;;;;;;;1999.90;999.90;;;10.60;99.90;;;;;;5033184;28;20252;-75
2023/12/29 04:01:19;;;;;;;1999.90;999.90;;;10.60;99.90;;;;;;5033001;28;20497;-75
2023/12/29 04:03:45;;;;;;;1999.90;999.90;;;10.70;99.90;;;;;;5033051;28;20402;-75
2023/12/29 04:06:11;;;;;;;1999.90;999.90;;;10.70;99.90;;;;;;5032997;28;20497;-74
2023/12/29 04:08:37;;;;;;;1999.90;999.90;;;10.70;99.90;;;;;;5033025;28;20544;-75
2023/12/29 04:11:04;;;;;;;1999.90;999.90;;;10.70;99.90;;;;;;5032732;28;20418;-75
2023/12/29 04:13:31;;;;;;;1999.90;999.90;;;10.70;99.90;;;;;;5032914;28;20473;-75
2023/12/29 04:15:57;;;;;;;1999.90;999.90;;;10.80;99.90;;;;;;5033002;28;20796;-73
2023/12/29 04:18:23;;;;;;;1999.90;999.90;;;10.80;99.90;;;;;;5032696;28;20462;-74
2023/12/29 04:20:49;;;;;;;1999.90;999.90;;;10.80;99.90;;;;;;5032855;28;20171;-74
2023/12/29 04:23:15;;;;;;;1999.90;999.90;;;10.80;99.90;;;;;;5032526;28;20781;-74
2023/12/29 04:25:41;;;;;;;1999.90;999.90;;;10.80;99.90;;;;;;5032628;28;20411;-75
2023/12/29 04:28:07;;;;;;;1999.90;999.90;;;10.90;99.90;;;;;;5032686;28;20262;-75
2023/12/29 04:30:33;;;;;;;1999.90;999.90;;;10.90;99.90;;;;;;5032599;28;20174;-73
2023/12/29 04:32:59;;;;;;;1999.90;999.90;;;10.90;99.90;;;;;;5032439;28;20420;-75
2023/12/29 04:35:24;;;;;;;1999.90;999.90;;;10.90;99.90;;;;;;5032564;28;20821;-74
2023/12/29 04:37:51;;;;;;;1999.90;999.90;;;11.00;99.90;;;;;;5032374;28;20449;-75
2023/12/29 04:40:16;;;;;;;1999.90;999.90;;;11.00;99.90;;;;;;5032419;28;20179;-74
2023/12/29 04:42:42;;;;;;;1999.90;999.90;;;11.00;99.90;;;;;;5032247;28;20411;-75
2023/12/29 04:45:08;;;;;;;1999.90;999.90;;;11.00;99.90;;;;;;5032440;28;20642;-75
2023/12/29 04:47:33;;;;;;;1999.90;999.90;;;11.00;99.90;;;;;;5032319;28;20662;-74
2023/12/29 04:49:59;;;;;;;1999.90;999.90;;;11.10;99.90;;;;;;5032316;28;20175;-75
2023/12/29 04:52:24;;;;;;;1999.90;999.90;;;11.00;99.90;;;;;;5032078;28;20186;-75
2023/12/29 04:54:50;;;;;;;1999.90;999.90;;;11.00;99.90;;;;;;5032115;28;20171;-74
2023/12/29 04:57:16;;;;;;;1999.90;999.90;;;10.90;99.90;;;;;;5032040;28;20278;-73
2023/12/29 04:59:41;;;;;;;1999.90;999.90;;;10.90;99.90;;;;;;5032288;28;20175;-72
2023/12/29 05:02:07;;;;;;;1999.90;999.90;;;10.80;99.90;;;;;;5031940;28;20693;-74
2023/12/29 05:04:32;;;;;;;1999.90;999.90;;;10.80;99.90;;;;;;5032161;28;20171;-74
2023/12/29 05:06:58;;;;;;;1999.90;999.90;;;10.80;99.90;;;;;;5032005;28;20205;-74
2023/12/29 05:09:24;;;;;;;1999.90;999.90;;;10.70;99.90;;;;;;5031969;28;20173;-73
2023/12/29 05:11:49;;;;;;;1999.90;999.90;;;10.70;99.90;;;;;;5031728;28;20176;-74
2023/12/29 05:14:15;;;;;;;1999.90;999.90;;;10.70;99.90;;;;;;5032086;28;20385;-73
2023/12/29 05:16:43;;;;;;;1999.90;999.90;;;10.70;99.90;;;;;;5031732;28;20191;-73
2023/12/29 05:19:09;;;;;;;1999.90;999.90;;;10.70;99.90;;;;;;5031910;28;20181;-73
2023/12/29 05:21:35;;;;;;;1999.90;999.90;;;10.80;99.90;;;;;;5031706;28;20409;-73
2023/12/29 05:24:00;;;;;;;1999.90;999.90;;;10.70;99.90;;;;;;5031699;28;20193;-74
2023/12/29 05:26:26;;;;;;;1999.90;999.90;;;10.60;99.90;;;;;;5031766;28;20167;-73
2023/12/29 05:28:52;;;;;;;1999.90;999.90;;;10.70;99.90;;;;;;5031725;28;20597;-74
2023/12/29 05:31:17;;;;;;;1999.90;999.90;;;10.60;99.90;;;;;;5031290;28;20171;-74
2023/12/29 05:33:44;;;;;;;1999.90;999.90;;;10.60;99.90;;;;;;5031709;28;20198;-75
2023/12/29 05:36:11;;;;;;;1999.90;999.90;;;10.60;99.90;;;;;;5031678;28;20174;-74
2023/12/29 05:38:37;;;;;;;1999.90;999.90;;;10.50;99.90;;;;;;5031475;28;20499;-74
2023/12/29 05:41:04;;;;;;;1999.90;999.90;;;10.60;99.90;;;;;;5031504;28;20749;-74
2023/12/29 05:43:34;;;;;;;1999.90;999.90;;;10.60;99.90;;;;;;5031524;28;20402;-74
2023/12/29 05:46:00;;;;;;;1999.90;999.90;;;10.60;99.90;;;;;;5031693;28;20416;-74
2023/12/29 05:48:26;;;;;;;1999.90;999.90;;;10.50;99.90;;;;;;5031528;28;20819;-73
2023/12/29 05:50:52;;;;;;;1999.90;999.90;;;10.50;99.90;;;;;;5031302;28;20418;-72
2023/12/29 05:53:17;;;;;;;1999.90;999.90;;;10.50;99.90;;;;;;5031738;28;20175;-74
2023/12/29 05:55:44;;;;;;;1999.90;999.90;;;10.50;99.90;;;;;;5031707;28;20669;-74
2023/12/29 05:58:09;;;;;;;1999.90;999.90;;;10.50;99.90;;;;;;5031481;28;20589;-74
2023/12/29 06:00:36;;;;;;;1999.90;999.90;;;10.40;99.90;;;;;;5031480;28;20496;-73
2023/12/29 06:03:04;;;;;;;1999.90;999.90;;;10.50;99.90;;;;;;5031244;28;20246;-74
2023/12/29 06:05:29;;;;;;;1999.90;999.90;;;10.50;99.90;;;;;;5031381;28;20409;-74
2023/12/29 06:07:55;;;;;;;1999.90;999.90;;;10.50;99.90;;;;;;5031415;28;20483;-74
2023/12/29 06:10:21;;;;;;;1999.90;999.90;;;10.50;99.90;;;;;;5031762;28;20195;-75
2023/12/29 06:12:46;;;;;;;1999.90;999.90;;;10.50;99.90;;;;;;5031145;28;20207;-74
2023/12/29 06:15:14;;;;;;;1999.90;999.90;;;10.50;99.90;;;;;;5031388;28;20186;-74
2023/12/29 06:17:40;;;;;;;1999.90;999.90;;;10.50;99.90;;;;;;5031056;28;20248;-74
2023/12/29 06:20:07;;;;;;;1999.90;999.90;;;10.40;99.90;;;;;;5031304;28;20440;-74
2023/12/29 06:22:32;;;;;;;1999.90;999.90;;;10.40;99.90;;;;;;5031048;28;20479;-74
2023/12/29 06:24:58;;;;;;;1999.90;999.90;;;10.40;99.90;;;;;;5031273;28;20406;-74
2023/12/29 06:27:25;;;;;;;1999.90;999.90;;;10.50;99.90;;;;;;5031204;28;20197;-74
2023/12/29 06:29:51;;;;;;;1999.90;999.90;;;10.50;99.90;;;;;;5031288;28;20485;-74
2023/12/29 06:32:16;;;;;;;1999.90;999.90;;;10.50;99.90;;;;;;5031041;28;20493;-71
2023/12/29 06:34:42;;;;;;;1999.90;999.90;;;10.50;99.90;;;;;;5031185;28;20587;-71
2023/12/29 06:37:07;;;;;;;1999.90;999.90;;;10.50;99.90;;;;;;5031014;28;20206;-71
2023/12/29 06:39:33;;;;;;;1999.90;999.90;;;10.50;99.90;;;;;;5031178;28;20163;-75
2023/12/29 06:41:59;;;;;;;1999.90;999.90;;;10.50;99.90;;;;;;5030864;28;20169;-71
2023/12/29 06:44:24;;;;;;;1999.90;999.90;;;10.60;99.90;;;;;;5033844;28;20175;-72
2023/12/29 06:46:50;;;;;;;1999.90;999.90;;;10.60;99.90;;;;;;5034540;28;20187;-71
2023/12/29 06:49:15;;;;;;;1999.90;999.90;;;10.50;99.90;;;;;;5034548;28;20171;-73
2023/12/29 06:51:41;;;;;;;1999.90;999.90;;;10.50;99.90;;;;;;5034353;28;20167;-71
2023/12/29 06:54:07;;;;;;;1999.90;999.90;;;10.60;99.90;;;;;;5034454;28;20169;-71
2023/12/29 06:56:33;;;;;;;1999.90;999.90;;;10.50;99.90;;;;;;5034345;28;20274;-71
2023/12/29 06:58:58;;;;;;;1999.90;999.90;;;10.50;99.90;;;;;;5034374;28;20806;-71
2023/12/29 07:01:24;;;;;;;1999.90;999.90;;;10.50;99.90;;;;;;5034211;28;20226;-71
2023/12/29 07:03:50;;;;;;;1999.90;999.90;;;10.60;99.90;;;;;;5034210;28;20172;-73
2023/12/29 07:06:16;;;;;;;1999.90;999.90;;;10.50;99.90;;;;;;5034241;28;20639;-73
2023/12/29 07:08:41;;;;;;;1999.90;999.90;;;10.60;99.90;;;;;;5034252;28;20407;-74
2023/12/29 07:11:13;;;;;;;1999.90;999.90;;;10.60;99.90;;;;;;5034228;28;20691;-74
2023/12/29 07:13:39;;;;;;;1999.90;999.90;;;10.70;99.90;;;;;;5034057;28;20170;-74
2023/12/29 07:16:05;;;;;;;1999.90;999.90;;;10.60;99.90;;;;;;5033972;28;20870;-74
2023/12/29 07:18:30;;;;;;;1999.90;999.90;;;10.60;99.90;;;;;;5033836;28;20211;-73
2023/12/29 07:20:56;;;;;;;1999.90;999.90;;;10.60;99.90;;;;;;5033777;28;20406;-74
2023/12/29 07:23:22;;;;;;;1999.90;999.90;;;10.60;99.90;;;;;;5034032;28;20253;-73
2023/12/29 07:25:48;;;;;;;1999.90;999.90;;;10.60;99.90;;;;;;5029321;28;20182;-73
2023/12/29 07:28:14;;;;;;;1999.90;999.90;;;10.60;99.90;;;;;;5033493;28;20289;-74
2023/12/29 07:30:39;;;;;;;1999.90;999.90;;;10.60;99.90;;;;;;5033633;28;20501;-74
2023/12/29 07:33:05;;;;;;;1999.90;999.90;;;10.60;99.90;;;;;;5033314;28;20186;-74
2023/12/29 07:35:31;;;;;;;1999.90;999.90;;;10.70;99.90;;;;;;5033629;28;20178;-74
2023/12/29 07:37:56;;;;;;;1999.90;999.90;;;10.70;99.90;;;;;;5033530;28;20314;-74
2023/12/29 07:40:22;;;;;;;1999.90;999.90;;;10.70;99.90;;;;;;5033617;28;20247;-73
2023/12/29 07:42:50;;;;;;;1999.90;999.90;;;10.70;99.90;;;;;;5033455;28;20708;-74
2023/12/29 07:45:16;;;;;;;1999.90;999.90;;;10.60;99.90;;;;;;5033447;28;20173;-74
2023/12/29 07:47:42;;;;;;;1999.90;999.90;;;10.60;99.90;;;;;;5033375;28;20847;-73
2023/12/29 07:50:08;;;;;;;1999.90;999.90;;;10.50;99.90;;;;;;5033381;28;20415;-70
2023/12/29 07:52:34;;;;;;;1999.90;999.90;;;10.30;99.90;;;;;;5033220;28;20418;-70
2023/12/29 07:54:59;;;;;;;1999.90;999.90;;;10.10;99.90;;;;;;5033042;28;20255;-71
2023/12/29 07:57:25;;;;;;;1999.90;999.90;;;10.00;99.90;;;;;;5033077;28;20293;-69
2023/12/29 07:59:52;;;;;;;1999.90;999.90;;;10.00;99.90;;;;;;5035321;28;20171;-70
2023/12/29 08:02:17;;;;;;;1999.90;999.90;;;10.00;99.90;;;;;;5035680;28;20178;-73
2023/12/29 08:04:46;;;;;;;1999.90;999.90;;;9.80;99.90;;;;;;5034987;28;20413;-73
2023/12/29 08:07:12;;;;;;;1999.90;999.90;;;9.60;99.90;;;;;;5036538;28;20262;-75
2023/12/29 08:09:37;;;;;;;1999.90;999.90;;;9.60;99.90;;;;;;5036299;28;20414;-74
2023/12/29 08:12:03;;;;;;;1999.90;999.90;;;9.50;99.90;;;;;;5035473;28;20649;-72
2023/12/29 08:14:29;;;;;;;1999.90;999.90;;;9.40;99.90;;;;;;5035287;28;20170;-74
2023/12/29 08:16:56;;;;;;;1999.90;999.90;;;9.40;99.90;;;;;;5036627;28;20568;-74
2023/12/29 08:19:22;;;;;;;1999.90;999.90;;;9.40;99.90;;;;;;5037923;28;20180;-74
2023/12/29 08:21:48;;;;;;;1999.90;999.90;;;9.40;99.90;;;;;;5036419;28;20416;-74
2023/12/29 08:24:14;;;;;;;1999.90;999.90;;;9.40;99.90;;;;;;5036540;28;20188;-75
2023/12/29 08:26:46;;;;;;;1999.90;999.90;;;9.40;99.90;;;;;;5028955;28;20194;-74
2023/12/29 08:29:12;;;;;;;1999.90;999.90;;;9.30;99.90;;;;;;5035839;28;20415;-74
2023/12/29 08:31:38;;;;;;;1999.90;999.90;;;9.30;99.90;;;;;;5030718;28;20429;-74
2023/12/29 08:34:03;;;;;;;1999.90;999.90;;;9.30;99.90;;;;;;5032662;28;20576;-73
2023/12/29 08:36:29;;;;;;;1999.90;999.90;;;9.70;99.90;;;;;;5034978;28;20601;-71
2023/12/29 08:38:56;;;;;;;1999.90;999.90;;;9.40;99.90;;;;;;5035933;28;20297;-73
2023/12/29 08:41:22;;;;;;;1999.90;999.90;;;9.60;99.90;;;;;;5034339;28;20178;-72
2023/12/29 08:43:48;;;;;;;1999.90;999.90;;;9.50;99.90;;;;;;5033827;28;20400;-72
2023/12/29 08:46:13;;;;;;;1999.90;999.90;;;9.60;99.90;;;;;;5033638;28;20176;-70
2023/12/29 08:48:39;;;;;;;1999.90;999.90;;;9.50;99.90;;;;;;5033799;28;20295;-72
2023/12/29 08:51:04;;;;;;;1999.90;999.90;;;9.40;99.90;;;;;;5030135;28;20193;-70
2023/12/29 08:53:33;;;;;;;1999.90;999.90;;;9.40;99.90;;;;;;5032332;28;20206;-68
2023/12/29 08:55:59;;;;;;;1999.90;999.90;;;9.50;99.90;;;;;;5032124;28;20318;-69
2023/12/29 08:58:25;;;;;;;1999.90;999.90;;;9.60;99.90;;;;;;5031380;28;20453;-69
2023/12/29 09:00:50;;;;;;;1999.90;999.90;;;9.50;99.90;;;;;;5032099;28;20166;-70
2023/12/29 09:03:16;;;;;;;1999.90;999.90;;;9.50;99.90;;;;;;5030793;28;20517;-69
2023/12/29 09:05:42;;;;;;;1999.90;999.90;;;9.50;99.90;;;;;;5030247;28;20159;-70
2023/12/29 09:08:08;;;;;;;1999.90;999.90;;;9.60;99.90;;;;;;5031229;28;20429;-68
2023/12/29 09:10:33;;;;;;;1999.90;999.90;;;9.60;99.90;;;;;;5032025;28;20201;-69
2023/12/29 09:12:59;;;;;;;1999.90;999.90;;;9.60;99.90;;;;;;5031569;28;20170;-68
2023/12/29 09:15:25;;;;;;;1999.90;999.90;;;9.50;99.90;;;;;;5031884;28;20175;-69
2023/12/29 09:17:50;;;;;;;1999.90;999.90;;;9.50;99.90;;;;;;5031495;28;20230;-69
2023/12/29 09:20:17;;;;;;;1999.90;999.90;;;9.50;99.90;;;;;;5031713;28;20415;-69
2023/12/29 09:22:42;;;;;;;1999.90;999.90;;;9.70;99.90;;;;;;5031579;28;20167;-70
2023/12/29 09:25:08;;;;;;;1999.90;999.90;;;9.60;99.90;;;;;;5031777;28;20414;-68
2023/12/29 09:27:34;;;;;;;1999.90;999.90;;;9.70;99.90;;;;;;5030557;28;20211;-70
2023/12/29 09:29:59;;;;;;;1999.90;999.90;;;9.60;99.90;;;;;;5028429;28;20236;-70
2023/12/29 09:32:25;;;;;;;1999.90;999.90;;;9.50;99.90;;;;;;5030471;28;20181;-70
2023/12/29 09:34:51;;;;;;;1999.90;999.90;;;9.70;99.90;;;;;;5029643;28;20183;-70
2023/12/29 09:37:17;;;;;;;1999.90;999.90;;;9.60;99.90;;;;;;5030129;28;20280;-70
2023/12/29 09:39:43;;;;;;;1999.90;999.90;;;9.70;99.90;;;;;;5030504;28;20783;-70
2023/12/29 09:42:12;;;;;;;1999.90;999.90;;;9.80;99.90;;;;;;5029599;28;20421;-70
2023/12/29 09:44:38;;;;;;;1999.90;999.90;;;9.80;99.90;;;;;;5030317;28;20654;-70
2023/12/29 09:47:06;;;;;;;1999.90;999.90;;;9.90;99.90;;;;;;5030383;28;20433;-70
2023/12/29 09:49:41;;;;;;;1999.90;999.90;;;10.00;99.90;;;;;;5029812;28;20240;-70
2023/12/29 09:52:12;;;;;;;1999.90;999.90;;;10.00;99.90;;;;;;5029171;28;20397;-70
2023/12/29 09:54:39;;;;;;;1999.90;999.90;;;10.20;99.90;;;;;;5030788;28;20760;-70
2023/12/29 09:57:05;;;;;;;1999.90;999.90;;;10.20;99.90;;;;;;5024701;28;20997;-70
2023/12/29 09:59:36;;;;;;;1999.90;999.90;;;10.40;99.90;;;;;;5031594;28;20414;-70
2023/12/29 10:02:03;;;;;;;1999.90;999.90;;;10.50;99.90;;;;;;5031350;28;20422;-71
2023/12/29 10:04:29;;;;;;;1999.90;999.90;;;10.60;99.90;;;;;;5030462;28;20934;-70
2023/12/29 10:06:56;;;;;;;1999.90;999.90;;;10.80;99.90;;;;;;5031179;28;20456;-71
2023/12/29 10:09:24;;;;;;;1999.90;999.90;;;10.90;99.90;;;;;;5028610;28;20180;-71
2023/12/29 10:11:51;;;;;;;1999.90;999.90;;;11.00;99.90;;;;;;5025575;28;20837;-71
2023/12/29 10:14:29;;;;;;;1999.90;999.90;;;11.10;99.90;;;;;;5030246;28;20419;-71
2023/12/29 10:17:27;;;;;;;1999.90;999.90;;;11.20;99.90;;;;;;5025449;28;20467;-70
2023/12/29 10:20:06;;;;;;;1999.90;999.90;;;11.20;99.90;;;;;;5031004;28;20945;-71
2023/12/29 10:23:02;;;;;;;1999.90;999.90;;;11.30;99.90;;;;;;5033615;28;20419;-71
2023/12/29 10:25:28;;;;;;;1999.90;999.90;;;11.40;99.90;;;;;;5021755;28;20412;-71
2023/12/29 10:27:55;;;;;;;1999.90;999.90;;;11.40;99.90;;;;;;5030403;28;20456;-71
2023/12/29 10:30:21;;;;;;;1999.90;999.90;;;11.50;99.90;;;;;;5033131;28;20187;-71
2023/12/29 10:32:50;;;;;;;1999.90;999.90;;;11.40;99.90;;;;;;5033369;28;20426;-72
2023/12/29 10:35:17;;;;;;;1999.90;999.90;;;11.30;99.90;;;;;;5034273;28;20409;-72
2023/12/29 10:37:42;;;;;;;1999.90;999.90;;;11.30;99.90;;;;;;5033284;28;21010;-72
2023/12/29 10:40:08;;;;;;;1999.90;999.90;;;11.30;99.90;;;;;;5033362;28;20411;-71
2023/12/29 10:42:34;;;;;;;1999.90;999.90;;;11.30;99.90;;;;;;5034130;28;20670;-72
2023/12/29 10:45:08;;;;;;;1999.90;999.90;;;11.40;99.90;;;;;;5034303;28;20403;-71
2023/12/29 10:47:35;;;;;;;1999.90;999.90;;;11.50;99.90;;;;;;5033767;28;20276;-72
2023/12/29 10:50:03;;;;;;;1999.90;999.90;;;11.60;99.90;;;;;;5033946;28;20445;-72
2023/12/29 10:52:29;;;;;;;1999.90;999.90;;;11.60;99.90;;;;;;5032578;28;20419;-72
2023/12/29 10:55:09;;;;;;;1999.90;999.90;;;11.80;99.90;;;;;;5031081;28;20515;-72
2023/12/29 10:57:36;;;;;;;1999.90;999.90;;;11.80;99.90;;;;;;5025838;28;20460;-72
2023/12/29 11:00:03;;;;;;;1999.90;999.90;;;11.80;99.90;;;;;;5034019;28;20438;-72
2023/12/29 11:02:29;;;;;;;1999.90;999.90;;;11.70;99.90;;;;;;5033295;28;20407;-72
2023/12/29 11:05:08;;;;;;;1999.90;999.90;;;11.70;99.90;;;;;;5033575;28;20445;-72
2023/12/29 11:07:39;;;;;;;1999.90;999.90;;;11.70;99.90;;;;;;5033776;28;20433;-73
2023/12/29 11:10:09;;;;;;;1999.90;999.90;;;11.80;99.90;;;;;;5033688;28;20422;-72
2023/12/29 11:12:36;;;;;;;1999.90;999.90;;;11.80;99.90;;;;;;5033756;28;20422;-72
2023/12/29 11:15:03;;;;;;;1999.90;999.90;;;11.80;99.90;;;;;;5033451;28;20522;-72
2023/12/29 11:17:31;;;;;;;1999.90;999.90;;;11.80;99.90;;;;;;5029932;28;20459;-73
2023/12/29 11:19:59;;;;;;;1999.90;999.90;;;12.00;99.90;;;;;;5032309;28;20417;-74
2023/12/29 11:22:28;;;;;;;1999.90;999.90;;;12.30;99.90;;;;;;5033741;28;20918;-74
2023/12/29 11:24:53;;;;;;;1999.90;999.90;;;12.70;99.90;;;;;;5033472;28;20402;-74
2023/12/29 11:27:21;;;;;;;1999.90;999.90;;;13.00;99.90;;;;;;5033871;28;21019;-74
2023/12/29 11:29:47;;;;;;;1999.90;999.90;;;13.30;99.90;;;;;;5032741;28;20178;-74
2023/12/29 11:32:19;;;;;;;1999.90;999.90;;;13.60;97.10;;;;;;5033154;28;20700;-75
2023/12/29 11:34:52;;;;;;;1999.90;999.90;;;13.80;99.90;;;;;;5033391;28;20397;-74
2023/12/29 11:37:31;;;;;;;1999.90;999.90;;;14.00;92.60;;;;;;5032966;28;20459;-74
2023/12/29 11:40:34;;;;;;;1999.90;999.90;;;13.90;92.00;;;;;;5033445;28;20408;-74
2023/12/29 11:43:07;;;;;;;1999.90;999.90;;;14.00;93.30;;;;;;5033019;28;20395;-74
2023/12/29 11:45:36;;;;;;;1999.90;999.90;;;13.90;87.00;;;;;;5032691;28;20902;-74
2023/12/29 11:48:03;;;;;;;1999.90;999.90;;;13.40;98.70;;;;;;5033088;28;20418;-74
2023/12/29 11:50:40;;;;;;;1999.90;999.90;;;13.20;99.90;;;;;;5033031;28;21149;-75
2023/12/29 11:53:07;;;;;;;1999.90;999.90;;;12.90;99.90;;;;;;5032493;28;20846;-71
2023/12/29 11:55:37;;;;;;;1999.90;999.90;;;12.70;99.90;;;;;;5033349;28;20439;-71
2023/12/29 11:58:04;;;;;;;1999.90;999.90;;;12.80;99.90;;;;;;5033579;28;20977;-74
2023/12/29 12:00:46;;;;;;;1999.90;999.90;;;13.10;99.90;;;;;;5033052;28;20821;-71